sensor_id;sensor_type;location;lat;lon;timestamp;P1;durP1;ratioP1;P2;durP2;ratioP2
11539;SDS011;5826;54.756;9.192;2023-07-29T00:00:52;3.28;;;2.58;;
11539;SDS011;5826;54.756;9.192;2023-07-29T00:03:17;1.83;;;1.73;;
11539;SDS011;5826;54.756;9.192;2023-07-29T00:05:43;1.73;;;1.63;;
11539;SDS011;5826;54.756;9.192;2023-07-29T00:08:08;2.00;;;1.80;;
11539;SDS011;5826;54.756;9.192;2023-07-29T00:10:37;1.63;;;1.52;;
11539;SDS011;5826;54.756;9.192;2023-07-29T00:13:03;1.52;;;1.40;;
11539;SDS011;5826;54.756;9.192;2023-07-29T00:15:30;2.13;;;1.60;;
11539;SDS011;5826;54.756;9.192;2023-07-29T00:17:55;1.45;;;1.35;;
11539;SDS011;5826;54.756;9.192;2023-07-29T00:20:21;1.80;;;1.70;;
11539;SDS011;5826;54.756;9.192;2023-07-29T00:22:46;1.60;;;1.50;;
11539;SDS011;5826;54.756;9.192;2023-07-29T00:25:14;1.90;;;1.80;;
11539;SDS011;5826;54.756;9.192;2023-07-29T00:27:40;1.63;;;1.52;;
11539;SDS011;5826;54.756;9.192;2023-07-29T00:30:06;2.08;;;1.90;;
11539;SDS011;5826;54.756;9.192;2023-07-29T00:32:32;1.92;;;1.83;;
11539;SDS011;5826;54.756;9.192;2023-07-29T00:34:58;2.00;;;1.90;;
11539;SDS011;5826;54.756;9.192;2023-07-29T00:37:25;2.00;;;1.80;;
11539;SDS011;5826;54.756;9.192;2023-07-29T00:39:51;2.10;;;1.90;;
11539;SDS011;5826;54.756;9.192;2023-07-29T00:42:17;2.10;;;1.70;;
11539;SDS011;5826;54.756;9.192;2023-07-29T00:44:42;1.70;;;1.60;;
11539;SDS011;5826;54.756;9.192;2023-07-29T00:47:08;1.80;;;1.70;;
11539;SDS011;5826;54.756;9.192;2023-07-29T00:49:33;2.17;;;1.98;;
11539;SDS011;5826;54.756;9.192;2023-07-29T00:51:59;2.30;;;2.10;;
11539;SDS011;5826;54.756;9.192;2023-07-29T00:54:25;1.92;;;1.83;;
11539;SDS011;5826;54.756;9.192;2023-07-29T00:56:50;2.30;;;1.85;;
11539;SDS011;5826;54.756;9.192;2023-07-29T00:59:16;1.70;;;1.60;;
11539;SDS011;5826;54.756;9.192;2023-07-29T01:01:41;1.90;;;1.80;;
11539;SDS011;5826;54.756;9.192;2023-07-29T01:04:07;1.65;;;1.55;;
11539;SDS011;5826;54.756;9.192;2023-07-29T01:09:41;1.75;;;1.65;;
11539;SDS011;5826;54.756;9.192;2023-07-29T01:15:04;1.90;;;1.80;;
11539;SDS011;5826;54.756;9.192;2023-07-29T01:17:45;2.10;;;1.90;;
11539;SDS011;5826;54.756;9.192;2023-07-29T01:20:16;1.90;;;1.80;;
11539;SDS011;5826;54.756;9.192;2023-07-29T01:22:45;2.03;;;1.80;;
11539;SDS011;5826;54.756;9.192;2023-07-29T01:25:12;2.38;;;2.17;;
11539;SDS011;5826;54.756;9.192;2023-07-29T01:27:37;1.90;;;1.77;;
11539;SDS011;5826;54.756;9.192;2023-07-29T01:30:03;1.90;;;1.80;;
11539;SDS011;5826;54.756;9.192;2023-07-29T01:32:37;2.83;;;2.63;;
11539;SDS011;5826;54.756;9.192;2023-07-29T01:35:22;2.58;;;2.38;;
11539;SDS011;5826;54.756;9.192;2023-07-29T01:37:54;2.13;;;1.98;;
11539;SDS011;5826;54.756;9.192;2023-07-29T01:40:23;2.20;;;2.00;;
11539;SDS011;5826;54.756;9.192;2023-07-29T01:42:52;2.50;;;2.30;;
11539;SDS011;5826;54.756;9.192;2023-07-29T01:45:18;2.15;;;1.92;;
11539;SDS011;5826;54.756;9.192;2023-07-29T01:47:43;2.00;;;1.90;;
11539;SDS011;5826;54.756;9.192;2023-07-29T01:50:09;2.22;;;1.75;;
11539;SDS011;5826;54.756;9.192;2023-07-29T01:52:35;1.98;;;1.88;;
11539;SDS011;5826;54.756;9.192;2023-07-29T01:55:01;1.77;;;1.67;;
11539;SDS011;5826;54.756;9.192;2023-07-29T01:57:27;1.90;;;1.80;;
11539;SDS011;5826;54.756;9.192;2023-07-29T01:59:52;1.77;;;1.67;;
11539;SDS011;5826;54.756;9.192;2023-07-29T02:02:18;1.83;;;1.73;;
11539;SDS011;5826;54.756;9.192;2023-07-29T02:04:43;1.73;;;1.63;;
11539;SDS011;5826;54.756;9.192;2023-07-29T02:07:10;2.00;;;1.90;;
11539;SDS011;5826;54.756;9.192;2023-07-29T02:09:35;1.90;;;1.80;;
11539;SDS011;5826;54.756;9.192;2023-07-29T02:12:01;2.00;;;1.90;;
11539;SDS011;5826;54.756;9.192;2023-07-29T02:14:27;1.90;;;1.80;;
11539;SDS011;5826;54.756;9.192;2023-07-29T02:16:53;1.90;;;1.80;;
11539;SDS011;5826;54.756;9.192;2023-07-29T02:19:18;1.90;;;1.80;;
11539;SDS011;5826;54.756;9.192;2023-07-29T02:21:44;1.60;;;1.50;;
11539;SDS011;5826;54.756;9.192;2023-07-29T02:24:09;1.92;;;1.73;;
11539;SDS011;5826;54.756;9.192;2023-07-29T02:26:35;1.77;;;1.67;;
11539;SDS011;5826;54.756;9.192;2023-07-29T02:29:00;1.83;;;1.70;;
11539;SDS011;5826;54.756;9.192;2023-07-29T02:31:26;1.92;;;1.83;;
11539;SDS011;5826;54.756;9.192;2023-07-29T02:33:52;1.90;;;1.80;;
11539;SDS011;5826;54.756;9.192;2023-07-29T02:36:17;1.70;;;1.60;;
11539;SDS011;5826;54.756;9.192;2023-07-29T02:38:43;1.50;;;1.40;;
11539;SDS011;5826;54.756;9.192;2023-07-29T02:41:09;2.00;;;1.90;;
11539;SDS011;5826;54.756;9.192;2023-07-29T02:43:37;2.00;;;1.90;;
11539;SDS011;5826;54.756;9.192;2023-07-29T02:46:02;1.80;;;1.70;;
11539;SDS011;5826;54.756;9.192;2023-07-29T02:48:28;2.28;;;2.08;;
11539;SDS011;5826;54.756;9.192;2023-07-29T02:50:54;2.10;;;1.90;;
11539;SDS011;5826;54.756;9.192;2023-07-29T02:53:21;2.05;;;1.92;;
11539;SDS011;5826;54.756;9.192;2023-07-29T02:55:47;2.30;;;2.20;;
11539;SDS011;5826;54.756;9.192;2023-07-29T02:58:13;2.17;;;1.98;;
11539;SDS011;5826;54.756;9.192;2023-07-29T03:00:38;2.30;;;2.10;;
11539;SDS011;5826;54.756;9.192;2023-07-29T03:03:06;1.95;;;1.85;;
11539;SDS011;5826;54.756;9.192;2023-07-29T03:05:32;2.05;;;1.95;;
11539;SDS011;5826;54.756;9.192;2023-07-29T03:07:58;2.47;;;2.28;;
11539;SDS011;5826;54.756;9.192;2023-07-29T03:10:23;2.40;;;2.20;;
11539;SDS011;5826;54.756;9.192;2023-07-29T03:12:49;2.10;;;2.00;;
11539;SDS011;5826;54.756;9.192;2023-07-29T03:15:14;2.67;;;2.13;;
11539;SDS011;5826;54.756;9.192;2023-07-29T03:17:40;2.40;;;2.20;;
11539;SDS011;5826;54.756;9.192;2023-07-29T03:20:05;3.67;;;2.63;;
11539;SDS011;5826;54.756;9.192;2023-07-29T03:22:31;2.58;;;2.38;;
11539;SDS011;5826;54.756;9.192;2023-07-29T03:24:57;3.25;;;2.75;;
11539;SDS011;5826;54.756;9.192;2023-07-29T03:27:22;3.58;;;2.60;;
11539;SDS011;5826;54.756;9.192;2023-07-29T03:29:48;3.20;;;2.90;;
11539;SDS011;5826;54.756;9.192;2023-07-29T03:32:13;2.55;;;2.35;;
11539;SDS011;5826;54.756;9.192;2023-07-29T03:34:39;2.60;;;2.40;;
11539;SDS011;5826;54.756;9.192;2023-07-29T03:37:05;3.45;;;3.00;;
11539;SDS011;5826;54.756;9.192;2023-07-29T03:39:31;2.67;;;2.47;;
11539;SDS011;5826;54.756;9.192;2023-07-29T03:41:57;2.97;;;2.78;;
11539;SDS011;5826;54.756;9.192;2023-07-29T03:44:22;2.53;;;2.33;;
11539;SDS011;5826;54.756;9.192;2023-07-29T03:46:48;2.80;;;2.60;;
11539;SDS011;5826;54.756;9.192;2023-07-29T03:49:14;3.17;;;2.88;;
11539;SDS011;5826;54.756;9.192;2023-07-29T03:51:39;3.20;;;2.90;;
11539;SDS011;5826;54.756;9.192;2023-07-29T03:54:05;3.78;;;2.90;;
11539;SDS011;5826;54.756;9.192;2023-07-29T03:56:31;3.30;;;3.00;;
11539;SDS011;5826;54.756;9.192;2023-07-29T03:59:03;2.67;;;2.45;;
11539;SDS011;5826;54.756;9.192;2023-07-29T04:01:31;3.92;;;3.53;;
11539;SDS011;5826;54.756;9.192;2023-07-29T04:03:57;3.50;;;3.17;;
11539;SDS011;5826;54.756;9.192;2023-07-29T04:06:23;4.25;;;3.40;;
11539;SDS011;5826;54.756;9.192;2023-07-29T04:08:49;4.43;;;3.67;;
11539;SDS011;5826;54.756;9.192;2023-07-29T04:11:15;3.60;;;3.30;;
11539;SDS011;5826;54.756;9.192;2023-07-29T04:13:40;3.40;;;3.10;;
11539;SDS011;5826;54.756;9.192;2023-07-29T04:16:06;3.50;;;3.20;;
11539;SDS011;5826;54.756;9.192;2023-07-29T04:18:32;4.30;;;3.90;;
11539;SDS011;5826;54.756;9.192;2023-07-29T04:20:58;3.38;;;3.08;;
11539;SDS011;5826;54.756;9.192;2023-07-29T04:23:23;3.90;;;3.10;;
11539;SDS011;5826;54.756;9.192;2023-07-29T04:25:49;3.58;;;3.28;;
11539;SDS011;5826;54.756;9.192;2023-07-29T04:28:14;3.38;;;3.08;;
11539;SDS011;5826;54.756;9.192;2023-07-29T04:30:40;4.32;;;3.38;;
11539;SDS011;5826;54.756;9.192;2023-07-29T04:33:06;4.10;;;3.70;;
11539;SDS011;5826;54.756;9.192;2023-07-29T04:35:31;3.90;;;3.50;;
11539;SDS011;5826;54.756;9.192;2023-07-29T04:37:57;3.20;;;2.92;;
11539;SDS011;5826;54.756;9.192;2023-07-29T04:40:22;4.28;;;3.30;;
11539;SDS011;5826;54.756;9.192;2023-07-29T04:42:49;4.00;;;3.60;;
11539;SDS011;5826;54.756;9.192;2023-07-29T04:45:16;3.17;;;2.97;;
11539;SDS011;5826;54.756;9.192;2023-07-29T04:47:41;2.70;;;2.50;;
11539;SDS011;5826;54.756;9.192;2023-07-29T04:50:07;3.05;;;2.80;;
11539;SDS011;5826;54.756;9.192;2023-07-29T04:52:33;3.28;;;3.03;;
11539;SDS011;5826;54.756;9.192;2023-07-29T04:54:58;3.65;;;3.35;;
11539;SDS011;5826;54.756;9.192;2023-07-29T04:57:24;3.08;;;2.75;;
11539;SDS011;5826;54.756;9.192;2023-07-29T04:59:49;3.10;;;2.80;;
11539;SDS011;5826;54.756;9.192;2023-07-29T05:02:15;3.25;;;2.95;;
11539;SDS011;5826;54.756;9.192;2023-07-29T05:04:40;2.70;;;2.50;;
11539;SDS011;5826;54.756;9.192;2023-07-29T05:07:06;2.80;;;2.28;;
11539;SDS011;5826;54.756;9.192;2023-07-29T05:09:31;3.25;;;2.95;;
11539;SDS011;5826;54.756;9.192;2023-07-29T05:11:57;3.30;;;3.00;;
11539;SDS011;5826;54.756;9.192;2023-07-29T05:14:22;3.33;;;3.03;;
11539;SDS011;5826;54.756;9.192;2023-07-29T05:16:48;2.85;;;2.45;;
11539;SDS011;5826;54.756;9.192;2023-07-29T05:19:14;2.67;;;2.30;;
11539;SDS011;5826;54.756;9.192;2023-07-29T05:21:39;3.50;;;2.70;;
11539;SDS011;5826;54.756;9.192;2023-07-29T05:24:05;2.97;;;2.70;;
11539;SDS011;5826;54.756;9.192;2023-07-29T05:26:31;3.20;;;2.90;;
11539;SDS011;5826;54.756;9.192;2023-07-29T05:28:56;2.72;;;2.53;;
11539;SDS011;5826;54.756;9.192;2023-07-29T05:31:22;2.78;;;2.42;;
11539;SDS011;5826;54.756;9.192;2023-07-29T05:33:47;2.63;;;2.42;;
11539;SDS011;5826;54.756;9.192;2023-07-29T05:36:13;3.67;;;3.38;;
11539;SDS011;5826;54.756;9.192;2023-07-29T05:38:39;2.60;;;2.40;;
11539;SDS011;5826;54.756;9.192;2023-07-29T05:41:04;2.78;;;2.58;;
11539;SDS011;5826;54.756;9.192;2023-07-29T05:43:30;2.60;;;2.33;;
11539;SDS011;5826;54.756;9.192;2023-07-29T05:45:55;3.10;;;2.80;;
11539;SDS011;5826;54.756;9.192;2023-07-29T05:48:21;2.90;;;2.60;;
11539;SDS011;5826;54.756;9.192;2023-07-29T05:50:46;2.65;;;2.45;;
11539;SDS011;5826;54.756;9.192;2023-07-29T05:53:13;2.40;;;2.20;;
11539;SDS011;5826;54.756;9.192;2023-07-29T05:55:39;2.90;;;2.70;;
11539;SDS011;5826;54.756;9.192;2023-07-29T05:58:05;3.22;;;2.85;;
11539;SDS011;5826;54.756;9.192;2023-07-29T06:00:30;2.55;;;2.35;;
11539;SDS011;5826;54.756;9.192;2023-07-29T06:02:56;3.13;;;2.83;;
11539;SDS011;5826;54.756;9.192;2023-07-29T06:05:22;4.22;;;3.13;;
11539;SDS011;5826;54.756;9.192;2023-07-29T06:07:47;2.83;;;2.63;;
11539;SDS011;5826;54.756;9.192;2023-07-29T06:10:14;3.08;;;2.75;;
11539;SDS011;5826;54.756;9.192;2023-07-29T06:12:44;3.53;;;3.22;;
11539;SDS011;5826;54.756;9.192;2023-07-29T06:15:10;2.70;;;2.50;;
11539;SDS011;5826;54.756;9.192;2023-07-29T06:17:37;3.40;;;3.10;;
11539;SDS011;5826;54.756;9.192;2023-07-29T06:20:03;2.83;;;2.63;;
11539;SDS011;5826;54.756;9.192;2023-07-29T06:22:29;3.20;;;3.00;;
11539;SDS011;5826;54.756;9.192;2023-07-29T06:24:54;2.80;;;2.60;;
11539;SDS011;5826;54.756;9.192;2023-07-29T06:27:20;3.10;;;2.33;;
11539;SDS011;5826;54.756;9.192;2023-07-29T06:29:45;2.85;;;2.65;;
11539;SDS011;5826;54.756;9.192;2023-07-29T06:32:10;2.45;;;2.25;;
11539;SDS011;5826;54.756;9.192;2023-07-29T06:34:36;2.47;;;2.28;;
11539;SDS011;5826;54.756;9.192;2023-07-29T06:37:01;3.03;;;2.80;;
11539;SDS011;5826;54.756;9.192;2023-07-29T06:39:27;10.23;;;8.05;;
11539;SDS011;5826;54.756;9.192;2023-07-29T06:41:53;4.93;;;3.90;;
11539;SDS011;5826;54.756;9.192;2023-07-29T06:44:18;3.83;;;3.28;;
11539;SDS011;5826;54.756;9.192;2023-07-29T06:46:44;3.50;;;3.20;;
11539;SDS011;5826;54.756;9.192;2023-07-29T06:49:09;3.40;;;3.10;;
11539;SDS011;5826;54.756;9.192;2023-07-29T06:51:35;3.45;;;2.97;;
11539;SDS011;5826;54.756;9.192;2023-07-29T06:54:01;3.58;;;3.22;;
11539;SDS011;5826;54.756;9.192;2023-07-29T06:56:27;3.42;;;3.13;;
11539;SDS011;5826;54.756;9.192;2023-07-29T06:58:52;4.47;;;4.07;;
11539;SDS011;5826;54.756;9.192;2023-07-29T07:01:18;4.43;;;4.03;;
11539;SDS011;5826;54.756;9.192;2023-07-29T07:03:43;5.72;;;5.15;;
11539;SDS011;5826;54.756;9.192;2023-07-29T07:06:09;3.00;;;2.80;;
11539;SDS011;5826;54.756;9.192;2023-07-29T07:08:34;4.30;;;3.22;;
11539;SDS011;5826;54.756;9.192;2023-07-29T07:11:00;3.22;;;2.90;;
11539;SDS011;5826;54.756;9.192;2023-07-29T07:13:25;2.97;;;2.78;;
11539;SDS011;5826;54.756;9.192;2023-07-29T07:15:53;3.25;;;2.95;;
11539;SDS011;5826;54.756;9.192;2023-07-29T07:18:20;3.30;;;3.00;;
11539;SDS011;5826;54.756;9.192;2023-07-29T07:20:50;2.47;;;2.28;;
11539;SDS011;5826;54.756;9.192;2023-07-29T07:23:16;2.75;;;2.55;;
11539;SDS011;5826;54.756;9.192;2023-07-29T07:25:42;2.53;;;2.33;;
11539;SDS011;5826;54.756;9.192;2023-07-29T07:28:11;3.53;;;3.13;;
11539;SDS011;5826;54.756;9.192;2023-07-29T07:30:40;2.60;;;2.40;;
11539;SDS011;5826;54.756;9.192;2023-07-29T07:33:08;3.38;;;3.08;;
11539;SDS011;5826;54.756;9.192;2023-07-29T07:35:34;2.33;;;2.13;;
11539;SDS011;5826;54.756;9.192;2023-07-29T07:38:00;2.60;;;2.40;;
11539;SDS011;5826;54.756;9.192;2023-07-29T07:40:27;3.08;;;2.80;;
11539;SDS011;5826;54.756;9.192;2023-07-29T07:42:53;3.28;;;2.85;;
11539;SDS011;5826;54.756;9.192;2023-07-29T07:45:18;2.95;;;2.60;;
11539;SDS011;5826;54.756;9.192;2023-07-29T07:47:44;3.33;;;3.03;;
11539;SDS011;5826;54.756;9.192;2023-07-29T07:50:10;2.75;;;2.55;;
11539;SDS011;5826;54.756;9.192;2023-07-29T07:52:35;3.25;;;2.80;;
11539;SDS011;5826;54.756;9.192;2023-07-29T07:55:01;2.78;;;2.58;;
11539;SDS011;5826;54.756;9.192;2023-07-29T07:57:27;2.95;;;2.72;;
11539;SDS011;5826;54.756;9.192;2023-07-29T07:59:52;3.72;;;3.38;;
11539;SDS011;5826;54.756;9.192;2023-07-29T08:02:18;2.70;;;2.50;;
11539;SDS011;5826;54.756;9.192;2023-07-29T08:04:44;4.25;;;3.85;;
11539;SDS011;5826;54.756;9.192;2023-07-29T08:07:09;3.95;;;3.55;;
11539;SDS011;5826;54.756;9.192;2023-07-29T08:09:35;3.55;;;3.25;;
11539;SDS011;5826;54.756;9.192;2023-07-29T08:12:00;3.45;;;3.15;;
11539;SDS011;5826;54.756;9.192;2023-07-29T08:14:26;3.78;;;3.40;;
11539;SDS011;5826;54.756;9.192;2023-07-29T08:16:52;5.22;;;4.72;;
11539;SDS011;5826;54.756;9.192;2023-07-29T08:19:17;5.18;;;4.70;;
11539;SDS011;5826;54.756;9.192;2023-07-29T08:21:43;4.63;;;4.18;;
11539;SDS011;5826;54.756;9.192;2023-07-29T08:24:08;5.20;;;4.70;;
11539;SDS011;5826;54.756;9.192;2023-07-29T08:26:34;4.20;;;3.80;;
11539;SDS011;5826;54.756;9.192;2023-07-29T08:29:00;5.32;;;4.82;;
11539;SDS011;5826;54.756;9.192;2023-07-29T08:31:25;4.50;;;4.10;;
11539;SDS011;5826;54.756;9.192;2023-07-29T08:33:51;8.27;;;7.47;;
11539;SDS011;5826;54.756;9.192;2023-07-29T08:36:16;7.80;;;7.10;;
11539;SDS011;5826;54.756;9.192;2023-07-29T08:38:42;5.32;;;4.78;;
11539;SDS011;5826;54.756;9.192;2023-07-29T08:43:39;5.40;;;4.90;;
11539;SDS011;5826;54.756;9.192;2023-07-29T08:46:12;8.93;;;7.90;;
11539;SDS011;5826;54.756;9.192;2023-07-29T08:48:41;6.32;;;5.72;;
11539;SDS011;5826;54.756;9.192;2023-07-29T08:51:09;6.80;;;6.20;;
11539;SDS011;5826;54.756;9.192;2023-07-29T08:53:36;8.65;;;7.53;;
11539;SDS011;5826;54.756;9.192;2023-07-29T08:56:02;6.20;;;5.60;;
11539;SDS011;5826;54.756;9.192;2023-07-29T08:58:28;7.03;;;6.32;;
11539;SDS011;5826;54.756;9.192;2023-07-29T09:00:54;5.28;;;4.78;;
11539;SDS011;5826;54.756;9.192;2023-07-29T09:03:20;6.53;;;5.13;;
11539;SDS011;5826;54.756;9.192;2023-07-29T09:05:46;5.75;;;5.20;;
11539;SDS011;5826;54.756;9.192;2023-07-29T09:08:13;8.90;;;7.90;;
11539;SDS011;5826;54.756;9.192;2023-07-29T09:10:38;7.90;;;7.10;;
11539;SDS011;5826;54.756;9.192;2023-07-29T09:13:04;5.75;;;5.25;;
11539;SDS011;5826;54.756;9.192;2023-07-29T09:15:31;5.95;;;5.32;;
11539;SDS011;5826;54.756;9.192;2023-07-29T09:17:58;6.13;;;5.45;;
11539;SDS011;5826;54.756;9.192;2023-07-29T09:20:25;7.30;;;6.47;;
11539;SDS011;5826;54.756;9.192;2023-07-29T09:22:54;11.18;;;9.15;;
11539;SDS011;5826;54.756;9.192;2023-07-29T09:25:24;9.23;;;7.60;;
11539;SDS011;5826;54.756;9.192;2023-07-29T09:27:50;10.70;;;8.93;;
11539;SDS011;5826;54.756;9.192;2023-07-29T09:30:16;11.27;;;9.90;;
11539;SDS011;5826;54.756;9.192;2023-07-29T09:32:42;7.75;;;5.88;;
11539;SDS011;5826;54.756;9.192;2023-07-29T09:35:09;9.98;;;8.65;;
11539;SDS011;5826;54.756;9.192;2023-07-29T09:37:37;9.38;;;7.97;;
11539;SDS011;5826;54.756;9.192;2023-07-29T09:40:03;8.18;;;7.32;;
11539;SDS011;5826;54.756;9.192;2023-07-29T09:42:30;7.90;;;6.80;;
11539;SDS011;5826;54.756;9.192;2023-07-29T09:44:55;6.38;;;5.78;;
11539;SDS011;5826;54.756;9.192;2023-07-29T09:47:21;6.97;;;6.28;;
11539;SDS011;5826;54.756;9.192;2023-07-29T09:49:52;10.45;;;8.43;;
11539;SDS011;5826;54.756;9.192;2023-07-29T09:52:18;9.38;;;7.82;;
11539;SDS011;5826;54.756;9.192;2023-07-29T09:54:47;9.38;;;7.40;;
11539;SDS011;5826;54.756;9.192;2023-07-29T09:57:13;6.22;;;5.63;;
11539;SDS011;5826;54.756;9.192;2023-07-29T09:59:39;8.80;;;7.45;;
11539;SDS011;5826;54.756;9.192;2023-07-29T10:02:07;8.30;;;7.40;;
11539;SDS011;5826;54.756;9.192;2023-07-29T10:04:41;7.05;;;6.35;;
11539;SDS011;5826;54.756;9.192;2023-07-29T10:07:07;8.48;;;7.47;;
11539;SDS011;5826;54.756;9.192;2023-07-29T10:09:40;12.02;;;9.50;;
11539;SDS011;5826;54.756;9.192;2023-07-29T10:12:06;11.07;;;8.18;;
11539;SDS011;5826;54.756;9.192;2023-07-29T10:14:33;9.35;;;8.50;;
11539;SDS011;5826;54.756;9.192;2023-07-29T10:16:59;8.95;;;8.05;;
11539;SDS011;5826;54.756;9.192;2023-07-29T10:19:25;11.63;;;8.32;;
11539;SDS011;5826;54.756;9.192;2023-07-29T10:21:52;6.78;;;6.10;;
11539;SDS011;5826;54.756;9.192;2023-07-29T10:24:29;6.30;;;5.18;;
11539;SDS011;5826;54.756;9.192;2023-07-29T10:27:47;6.05;;;5.47;;
11539;SDS011;5826;54.756;9.192;2023-07-29T10:30:17;7.90;;;6.85;;
11539;SDS011;5826;54.756;9.192;2023-07-29T10:32:43;8.05;;;5.40;;
11539;SDS011;5826;54.756;9.192;2023-07-29T10:35:10;5.82;;;4.90;;
11539;SDS011;5826;54.756;9.192;2023-07-29T10:37:36;9.25;;;7.40;;
11539;SDS011;5826;54.756;9.192;2023-07-29T10:40:05;6.47;;;5.38;;
11539;SDS011;5826;54.756;9.192;2023-07-29T10:42:32;6.47;;;5.65;;
11539;SDS011;5826;54.756;9.192;2023-07-29T10:44:57;8.05;;;6.25;;
11539;SDS011;5826;54.756;9.192;2023-07-29T10:47:24;6.97;;;5.57;;
11539;SDS011;5826;54.756;9.192;2023-07-29T10:49:56;7.85;;;6.07;;
11539;SDS011;5826;54.756;9.192;2023-07-29T10:52:30;7.57;;;5.50;;
11539;SDS011;5826;54.756;9.192;2023-07-29T10:55:22;5.47;;;4.93;;
11539;SDS011;5826;54.756;9.192;2023-07-29T10:58:17;5.68;;;4.57;;
11539;SDS011;5826;54.756;9.192;2023-07-29T11:00:43;4.53;;;4.10;;
11539;SDS011;5826;54.756;9.192;2023-07-29T11:03:11;4.55;;;4.13;;
11539;SDS011;5826;54.756;9.192;2023-07-29T11:05:46;5.93;;;4.00;;
11539;SDS011;5826;54.756;9.192;2023-07-29T11:11:07;4.40;;;3.90;;
11539;SDS011;5826;54.756;9.192;2023-07-29T11:13:37;5.55;;;5.03;;
11539;SDS011;5826;54.756;9.192;2023-07-29T11:16:03;5.78;;;4.30;;
11539;SDS011;5826;54.756;9.192;2023-07-29T11:18:33;5.55;;;3.95;;
11539;SDS011;5826;54.756;9.192;2023-07-29T11:21:00;4.97;;;3.50;;
11539;SDS011;5826;54.756;9.192;2023-07-29T11:23:30;5.97;;;3.33;;
11539;SDS011;5826;54.756;9.192;2023-07-29T11:26:01;3.22;;;2.97;;
11539;SDS011;5826;54.756;9.192;2023-07-29T11:28:27;6.50;;;4.00;;
11539;SDS011;5826;54.756;9.192;2023-07-29T11:30:54;4.75;;;3.45;;
11539;SDS011;5826;54.756;9.192;2023-07-29T11:33:21;4.57;;;3.47;;
11539;SDS011;5826;54.756;9.192;2023-07-29T11:35:48;5.97;;;3.42;;
11539;SDS011;5826;54.756;9.192;2023-07-29T11:38:15;4.90;;;3.28;;
11539;SDS011;5826;54.756;9.192;2023-07-29T11:40:41;5.78;;;3.50;;
11539;SDS011;5826;54.756;9.192;2023-07-29T11:43:07;4.22;;;3.03;;
11539;SDS011;5826;54.756;9.192;2023-07-29T11:45:32;4.60;;;2.80;;
11539;SDS011;5826;54.756;9.192;2023-07-29T11:47:58;4.07;;;3.10;;
11539;SDS011;5826;54.756;9.192;2023-07-29T11:50:25;3.92;;;2.90;;
11539;SDS011;5826;54.756;9.192;2023-07-29T11:52:51;4.72;;;3.17;;
11539;SDS011;5826;54.756;9.192;2023-07-29T11:55:17;5.50;;;3.00;;
11539;SDS011;5826;54.756;9.192;2023-07-29T11:57:44;4.68;;;2.58;;
11539;SDS011;5826;54.756;9.192;2023-07-29T12:00:14;3.45;;;2.65;;
11539;SDS011;5826;54.756;9.192;2023-07-29T12:02:43;4.25;;;2.55;;
11539;SDS011;5826;54.756;9.192;2023-07-29T12:05:10;5.35;;;3.10;;
11539;SDS011;5826;54.756;9.192;2023-07-29T12:07:39;4.40;;;2.80;;
11539;SDS011;5826;54.756;9.192;2023-07-29T12:10:06;2.80;;;2.35;;
11539;SDS011;5826;54.756;9.192;2023-07-29T12:12:32;4.18;;;2.45;;
11539;SDS011;5826;54.756;9.192;2023-07-29T12:14:57;3.15;;;2.40;;
11539;SDS011;5826;54.756;9.192;2023-07-29T12:17:23;4.90;;;2.67;;
11539;SDS011;5826;54.756;9.192;2023-07-29T12:19:48;2.95;;;2.03;;
11539;SDS011;5826;54.756;9.192;2023-07-29T12:22:19;5.82;;;2.70;;
11539;SDS011;5826;54.756;9.192;2023-07-29T12:24:44;3.88;;;2.22;;
11539;SDS011;5826;54.756;9.192;2023-07-29T12:27:11;2.95;;;2.00;;
11539;SDS011;5826;54.756;9.192;2023-07-29T12:29:40;5.22;;;2.70;;
11539;SDS011;5826;54.756;9.192;2023-07-29T12:32:07;4.05;;;2.58;;
11539;SDS011;5826;54.756;9.192;2023-07-29T12:34:34;4.65;;;2.28;;
11539;SDS011;5826;54.756;9.192;2023-07-29T12:37:02;4.93;;;2.50;;
11539;SDS011;5826;54.756;9.192;2023-07-29T12:39:29;4.22;;;2.33;;
11539;SDS011;5826;54.756;9.192;2023-07-29T12:41:57;3.55;;;2.28;;
11539;SDS011;5826;54.756;9.192;2023-07-29T12:44:24;3.90;;;2.33;;
11539;SDS011;5826;54.756;9.192;2023-07-29T12:46:56;4.85;;;2.53;;
11539;SDS011;5826;54.756;9.192;2023-07-29T12:49:22;4.55;;;2.55;;
11539;SDS011;5826;54.756;9.192;2023-07-29T12:51:48;4.65;;;2.67;;
11539;SDS011;5826;54.756;9.192;2023-07-29T12:54:13;5.82;;;2.80;;
11539;SDS011;5826;54.756;9.192;2023-07-29T12:56:39;3.10;;;2.35;;
11539;SDS011;5826;54.756;9.192;2023-07-29T12:59:05;5.55;;;2.88;;
11539;SDS011;5826;54.756;9.192;2023-07-29T13:01:31;4.10;;;2.80;;
11539;SDS011;5826;54.756;9.192;2023-07-29T13:03:56;5.20;;;2.70;;
11539;SDS011;5826;54.756;9.192;2023-07-29T13:06:22;5.90;;;3.35;;
11539;SDS011;5826;54.756;9.192;2023-07-29T13:08:48;4.55;;;2.65;;
11539;SDS011;5826;54.756;9.192;2023-07-29T13:11:14;2.92;;;2.53;;
11539;SDS011;5826;54.756;9.192;2023-07-29T13:13:40;2.83;;;2.25;;
11539;SDS011;5826;54.756;9.192;2023-07-29T13:16:05;3.33;;;2.13;;
11539;SDS011;5826;54.756;9.192;2023-07-29T13:18:31;5.38;;;2.70;;
11539;SDS011;5826;54.756;9.192;2023-07-29T13:20:57;3.70;;;2.25;;
11539;SDS011;5826;54.756;9.192;2023-07-29T13:23:23;3.65;;;2.22;;
11539;SDS011;5826;54.756;9.192;2023-07-29T13:25:49;4.47;;;2.47;;
11539;SDS011;5826;54.756;9.192;2023-07-29T13:28:15;5.18;;;2.50;;
11539;SDS011;5826;54.756;9.192;2023-07-29T13:30:41;4.07;;;2.80;;
11539;SDS011;5826;54.756;9.192;2023-07-29T13:33:07;3.30;;;2.20;;
11539;SDS011;5826;54.756;9.192;2023-07-29T13:35:33;3.10;;;2.72;;
11539;SDS011;5826;54.756;9.192;2023-07-29T13:37:59;4.28;;;2.53;;
11539;SDS011;5826;54.756;9.192;2023-07-29T13:40:25;4.40;;;2.40;;
11539;SDS011;5826;54.756;9.192;2023-07-29T13:42:50;3.47;;;2.58;;
11539;SDS011;5826;54.756;9.192;2023-07-29T13:45:17;3.03;;;2.30;;
11539;SDS011;5826;54.756;9.192;2023-07-29T13:47:42;4.88;;;2.60;;
11539;SDS011;5826;54.756;9.192;2023-07-29T13:50:08;5.03;;;2.47;;
11539;SDS011;5826;54.756;9.192;2023-07-29T13:52:35;3.53;;;2.25;;
11539;SDS011;5826;54.756;9.192;2023-07-29T13:55:01;3.50;;;2.10;;
11539;SDS011;5826;54.756;9.192;2023-07-29T13:57:27;4.25;;;2.63;;
11539;SDS011;5826;54.756;9.192;2023-07-29T13:59:52;5.50;;;2.90;;
11539;SDS011;5826;54.756;9.192;2023-07-29T14:02:18;5.20;;;2.90;;
11539;SDS011;5826;54.756;9.192;2023-07-29T14:04:43;3.50;;;2.58;;
11539;SDS011;5826;54.756;9.192;2023-07-29T14:07:09;4.28;;;2.92;;
11539;SDS011;5826;54.756;9.192;2023-07-29T14:09:34;5.05;;;2.80;;
11539;SDS011;5826;54.756;9.192;2023-07-29T14:12:00;6.28;;;3.03;;
11539;SDS011;5826;54.756;9.192;2023-07-29T14:14:25;5.50;;;3.08;;
11539;SDS011;5826;54.756;9.192;2023-07-29T14:16:51;4.65;;;2.88;;
11539;SDS011;5826;54.756;9.192;2023-07-29T14:19:16;3.85;;;3.00;;
11539;SDS011;5826;54.756;9.192;2023-07-29T14:21:42;4.13;;;2.78;;
11539;SDS011;5826;54.756;9.192;2023-07-29T14:24:07;3.80;;;2.40;;
11539;SDS011;5826;54.756;9.192;2023-07-29T14:26:33;3.92;;;2.25;;
11539;SDS011;5826;54.756;9.192;2023-07-29T14:28:58;4.80;;;2.70;;
11539;SDS011;5826;54.756;9.192;2023-07-29T14:31:24;4.43;;;2.15;;
11539;SDS011;5826;54.756;9.192;2023-07-29T14:33:49;4.65;;;2.10;;
11539;SDS011;5826;54.756;9.192;2023-07-29T14:36:15;3.13;;;2.10;;
11539;SDS011;5826;54.756;9.192;2023-07-29T14:38:41;5.57;;;2.28;;
11539;SDS011;5826;54.756;9.192;2023-07-29T14:41:06;3.00;;;1.70;;
11539;SDS011;5826;54.756;9.192;2023-07-29T14:43:33;3.63;;;1.77;;
11539;SDS011;5826;54.756;9.192;2023-07-29T14:45:59;3.17;;;1.90;;
11539;SDS011;5826;54.756;9.192;2023-07-29T14:48:25;3.70;;;1.70;;
11539;SDS011;5826;54.756;9.192;2023-07-29T14:50:50;3.47;;;1.80;;
11539;SDS011;5826;54.756;9.192;2023-07-29T14:53:16;2.65;;;1.67;;
11539;SDS011;5826;54.756;9.192;2023-07-29T14:55:41;3.20;;;1.73;;
11539;SDS011;5826;54.756;9.192;2023-07-29T14:58:07;2.85;;;1.70;;
11539;SDS011;5826;54.756;9.192;2023-07-29T15:00:32;2.75;;;1.73;;
11539;SDS011;5826;54.756;9.192;2023-07-29T15:02:58;3.78;;;1.77;;
11539;SDS011;5826;54.756;9.192;2023-07-29T15:05:23;3.67;;;1.70;;
11539;SDS011;5826;54.756;9.192;2023-07-29T15:07:49;3.65;;;2.03;;